createdAt,value
2018-12-22T00:00:08.068Z,994.69
2018-12-22T00:01:08.050Z,994.63
2018-12-22T00:02:08.092Z,994.67
2018-12-22T00:03:08.085Z,994.66
2018-12-22T00:04:08.141Z,994.63
2018-12-22T00:05:08.093Z,994.71
2018-12-22T00:06:08.143Z,994.69
2018-12-22T00:07:08.129Z,994.72
2018-12-22T00:08:08.156Z,994.65
2018-12-22T00:09:08.112Z,994.72
2018-12-22T00:10:08.536Z,994.71
2018-12-22T00:11:08.238Z,994.70
2018-12-22T00:12:08.133Z,994.62
2018-12-22T00:13:08.188Z,994.73
2018-12-22T00:14:09.093Z,994.68
2018-12-22T00:15:09.037Z,994.70
2018-12-22T00:16:08.512Z,994.69
2018-12-22T00:17:08.566Z,994.67
2018-12-22T00:18:08.150Z,994.62
2018-12-22T00:19:08.384Z,994.66
2018-12-22T00:20:08.227Z,994.64
2018-12-22T00:21:08.199Z,994.74
2018-12-22T00:22:08.189Z,994.71
2018-12-22T00:23:08.274Z,994.78
2018-12-22T00:24:08.229Z,994.72
2018-12-22T00:25:08.230Z,994.77
2018-12-22T00:26:08.250Z,994.72
2018-12-22T00:27:08.219Z,994.77
2018-12-22T00:28:08.265Z,994.80
2018-12-22T00:29:08.234Z,994.81
2018-12-22T00:30:08.292Z,994.82
2018-12-22T00:31:08.257Z,994.91
2018-12-22T00:32:08.413Z,994.85
2018-12-22T00:33:08.283Z,994.75
2018-12-22T00:34:08.295Z,994.88
2018-12-22T00:35:08.262Z,994.89
2018-12-22T00:36:08.346Z,994.87
2018-12-22T00:37:08.271Z,994.85
2018-12-22T00:38:08.536Z,994.89
2018-12-22T00:39:08.267Z,994.92
2018-12-22T00:40:08.326Z,994.82
2018-12-22T00:41:08.332Z,994.93
2018-12-22T00:42:08.340Z,994.90
2018-12-22T00:43:08.399Z,994.90
2018-12-22T00:44:08.469Z,994.96
2018-12-22T00:45:08.399Z,994.95
2018-12-22T00:46:08.430Z,994.82
2018-12-22T00:47:08.346Z,994.98
2018-12-22T00:48:08.370Z,994.98
2018-12-22T00:49:08.882Z,994.92
2018-12-22T00:50:08.402Z,994.96
2018-12-22T00:51:08.555Z,995.06
2018-12-22T00:52:08.438Z,995.13
2018-12-22T00:53:08.409Z,995.06
2018-12-22T00:54:09.018Z,995.08
2018-12-22T00:55:09.048Z,995.11
2018-12-22T00:56:08.437Z,995.18
2018-12-22T00:57:08.744Z,995.16
2018-12-22T00:58:08.407Z,995.23
2018-12-22T00:59:08.405Z,995.21
2018-12-22T01:00:08.487Z,995.24
2018-12-22T01:01:08.455Z,995.22
2018-12-22T01:02:08.438Z,995.19
2018-12-22T01:03:08.447Z,995.28
2018-12-22T01:04:08.425Z,995.26
2018-12-22T01:05:08.510Z,995.31
2018-12-22T01:06:08.463Z,995.40
2018-12-22T01:07:08.555Z,995.33
2018-12-22T01:08:08.457Z,995.38
2018-12-22T01:09:08.478Z,995.53
2018-12-22T01:10:08.544Z,995.57
2018-12-22T01:11:08.572Z,995.56
2018-12-22T01:12:08.496Z,995.54
2018-12-22T01:13:08.520Z,995.66
2018-12-22T01:14:08.607Z,995.55
2018-12-22T01:15:08.520Z,995.59
2018-12-22T01:16:08.523Z,995.58
2018-12-22T01:17:08.593Z,995.61
2018-12-22T01:18:08.571Z,995.70
2018-12-22T01:19:08.536Z,995.54
2018-12-22T01:20:08.534Z,995.56
2018-12-22T01:21:08.545Z,995.77
2018-12-22T01:22:08.541Z,995.75
2018-12-22T01:23:08.577Z,995.78
2018-12-22T01:24:08.544Z,995.85
2018-12-22T01:25:08.581Z,995.89
2018-12-22T01:26:08.561Z,995.82
2018-12-22T01:27:08.578Z,995.95
2018-12-22T01:28:08.642Z,995.89
2018-12-22T01:29:08.590Z,995.91
2018-12-22T01:30:08.610Z,995.84
2018-12-22T01:31:08.596Z,995.82
2018-12-22T01:32:08.603Z,995.80
2018-12-22T01:33:08.631Z,995.84
2018-12-22T01:34:08.660Z,995.86
2018-12-22T01:35:08.660Z,995.90
2018-12-22T01:36:08.655Z,995.68
2018-12-22T01:37:08.654Z,995.86
2018-12-22T01:38:08.628Z,995.85
2018-12-22T01:39:08.688Z,995.95
2018-12-22T01:40:08.651Z,995.77
2018-12-22T01:41:08.690Z,995.89
2018-12-22T01:42:08.666Z,995.83
2018-12-22T01:43:08.690Z,995.84
2018-12-22T01:44:08.708Z,995.88
2018-12-22T01:45:08.725Z,995.87
2018-12-22T01:46:08.684Z,995.89
2018-12-22T01:47:08.680Z,995.90
2018-12-22T01:48:08.704Z,995.87
2018-12-22T01:49:08.712Z,995.97
2018-12-22T01:50:08.728Z,995.95
2018-12-22T01:51:09.125Z,995.87
2018-12-22T01:52:08.750Z,995.92
2018-12-22T01:53:08.733Z,995.95
2018-12-22T01:54:08.796Z,996.00
2018-12-22T01:55:08.745Z,995.97
2018-12-22T01:56:08.820Z,996.04
2018-12-22T01:57:08.785Z,996.07
2018-12-22T01:58:08.762Z,995.94
2018-12-22T01:59:08.839Z,996.04
2018-12-22T02:00:08.771Z,996.12
2018-12-22T02:01:08.773Z,996.01
2018-12-22T02:02:08.788Z,996.03
2018-12-22T02:03:08.782Z,996.09
2018-12-22T02:04:08.799Z,996.11
2018-12-22T02:05:08.851Z,995.97
2018-12-22T02:06:08.813Z,996.12
2018-12-22T02:07:08.831Z,996.04
2018-12-22T02:08:08.841Z,996.06
2018-12-22T02:09:08.822Z,996.09
2018-12-22T02:10:08.885Z,996.17
2018-12-22T02:11:08.889Z,996.20
2018-12-22T02:12:08.860Z,996.15
2018-12-22T02:13:08.847Z,996.24
2018-12-22T02:14:08.854Z,996.32
2018-12-22T02:15:08.948Z,996.31
2018-12-22T02:16:08.874Z,996.29
2018-12-22T02:17:09.000Z,996.28
2018-12-22T02:18:08.872Z,996.30
2018-12-22T02:19:08.896Z,996.25
2018-12-22T02:20:08.880Z,996.33
2018-12-22T02:21:08.928Z,996.27
2018-12-22T02:22:08.907Z,996.51
2018-12-22T02:23:08.912Z,996.38
2018-12-22T02:24:08.916Z,996.45
2018-12-22T02:25:08.941Z,996.41
2018-12-22T02:26:08.944Z,996.45
2018-12-22T02:27:08.948Z,996.43
2018-12-22T02:28:08.931Z,996.60
2018-12-22T02:29:08.953Z,996.53
2018-12-22T02:30:08.953Z,996.46
2018-12-22T02:31:08.967Z,996.42
2018-12-22T02:32:08.959Z,996.43
2018-12-22T02:33:08.974Z,996.63
2018-12-22T02:34:08.957Z,996.41
2018-12-22T02:35:08.974Z,996.48
2018-12-22T02:36:09.009Z,996.53
2018-12-22T02:37:08.974Z,996.38
2018-12-22T02:38:08.990Z,996.54
2018-12-22T02:39:08.994Z,996.45
2018-12-22T02:40:09.023Z,996.48
2018-12-22T02:41:09.049Z,996.48
2018-12-22T02:42:09.026Z,996.52
2018-12-22T02:43:09.048Z,996.50
2018-12-22T02:44:09.035Z,996.49
2018-12-22T02:45:09.031Z,996.47
2018-12-22T02:46:09.040Z,996.59
2018-12-22T02:47:09.086Z,996.64
2018-12-22T02:48:09.081Z,996.56
2018-12-22T02:49:09.076Z,996.58
2018-12-22T02:50:09.054Z,996.60
2018-12-22T02:51:09.068Z,996.55
2018-12-22T02:52:09.096Z,996.54
2018-12-22T02:53:09.119Z,996.55
2018-12-22T02:54:09.094Z,996.50
2018-12-22T02:55:09.114Z,996.57
2018-12-22T02:56:09.108Z,996.48
2018-12-22T02:57:09.125Z,996.63
2018-12-22T02:58:09.230Z,996.66
2018-12-22T02:59:09.120Z,996.65
2018-12-22T03:00:09.137Z,996.49
2018-12-22T03:01:09.152Z,996.79
2018-12-22T03:02:09.133Z,996.74
2018-12-22T03:03:09.148Z,996.68
2018-12-22T03:04:09.160Z,996.64
2018-12-22T03:05:09.189Z,996.62
2018-12-22T03:06:09.177Z,996.64
2018-12-22T03:07:09.162Z,996.68
2018-12-22T03:08:09.175Z,996.69
2018-12-22T03:09:09.211Z,996.67
2018-12-22T03:10:09.202Z,996.63
2018-12-22T03:11:09.194Z,996.68
2018-12-22T03:12:09.236Z,996.66
2018-12-22T03:13:09.205Z,996.76
2018-12-22T03:14:09.286Z,996.74
2018-12-22T03:15:09.272Z,996.74
2018-12-22T03:16:09.219Z,996.73
2018-12-22T03:17:09.212Z,996.76
2018-12-22T03:18:09.240Z,996.74
2018-12-22T03:19:09.247Z,996.72
2018-12-22T03:20:09.241Z,996.81
2018-12-22T03:21:09.268Z,996.77
2018-12-22T03:22:09.278Z,996.72
2018-12-22T03:23:09.287Z,996.79
2018-12-22T03:24:09.249Z,996.82
2018-12-22T03:25:09.264Z,996.94
2018-12-22T03:26:09.347Z,996.90
2018-12-22T03:27:09.312Z,996.86
2018-12-22T03:28:09.289Z,996.90
2018-12-22T03:29:15.406Z,996.92
2018-12-22T03:30:09.333Z,996.93
2018-12-22T03:31:09.350Z,997.01
2018-12-22T03:32:09.333Z,997.03
2018-12-22T03:33:09.354Z,996.85
2018-12-22T03:34:09.307Z,996.97
2018-12-22T03:35:09.315Z,997.05
2018-12-22T03:36:09.357Z,996.99
2018-12-22T03:37:09.361Z,996.95
2018-12-22T03:38:09.385Z,997.08
2018-12-22T03:39:09.350Z,997.14
2018-12-22T03:40:09.394Z,997.16
2018-12-22T03:41:09.375Z,997.23
2018-12-22T03:42:09.384Z,997.14
2018-12-22T03:43:09.417Z,997.22
2018-12-22T03:44:09.391Z,997.16
2018-12-22T03:45:09.399Z,997.20
2018-12-22T03:46:09.485Z,997.26
2018-12-22T03:47:09.417Z,997.23
2018-12-22T03:48:09.464Z,997.24
2018-12-22T03:49:09.394Z,997.31
2018-12-22T03:50:09.414Z,997.25
2018-12-22T03:51:09.435Z,997.20
2018-12-22T03:52:09.458Z,997.40
2018-12-22T03:53:09.460Z,997.24
2018-12-22T03:54:09.428Z,997.35
2018-12-22T03:55:09.449Z,997.34
2018-12-22T03:56:09.459Z,997.34
2018-12-22T03:57:09.447Z,997.40
2018-12-22T03:58:09.472Z,997.38
2018-12-22T03:59:09.488Z,997.35
2018-12-22T04:00:09.480Z,997.42
2018-12-22T04:01:09.469Z,997.29
2018-12-22T04:02:09.501Z,997.23
2018-12-22T04:03:11.872Z,997.38
2018-12-22T04:04:09.565Z,997.22
2018-12-22T04:05:09.541Z,997.34
2018-12-22T04:06:09.505Z,997.36
2018-12-22T04:07:09.510Z,997.34
2018-12-22T04:08:09.522Z,997.37
2018-12-22T04:09:09.542Z,997.40
2018-12-22T04:10:09.593Z,997.33
2018-12-22T04:11:09.602Z,997.30
2018-12-22T04:12:09.551Z,997.30
2018-12-22T04:13:09.533Z,997.33
2018-12-22T04:14:09.565Z,997.37
2018-12-22T04:15:09.603Z,997.35
2018-12-22T04:16:09.560Z,997.35
2018-12-22T04:17:09.584Z,997.40
2018-12-22T04:18:09.595Z,997.39
2018-12-22T04:19:09.595Z,997.35
2018-12-22T04:20:09.607Z,997.33
2018-12-22T04:21:09.628Z,997.36
2018-12-22T04:22:09.628Z,997.36
2018-12-22T04:23:09.619Z,997.32
2018-12-22T04:24:09.625Z,997.33
2018-12-22T04:25:09.631Z,997.41
2018-12-22T04:26:09.697Z,997.43
2018-12-22T04:27:09.635Z,997.39
2018-12-22T04:28:09.648Z,997.45
2018-12-22T04:29:09.664Z,997.39
2018-12-22T04:30:09.661Z,997.52
2018-12-22T04:31:09.651Z,997.44
2018-12-22T04:32:09.682Z,997.50
2018-12-22T04:33:09.682Z,997.54
2018-12-22T04:34:09.695Z,997.62
2018-12-22T04:35:09.716Z,997.55
2018-12-22T04:36:09.684Z,997.55
2018-12-22T04:37:09.786Z,997.58
2018-12-22T04:38:09.697Z,997.53
2018-12-22T04:39:09.782Z,997.63
2018-12-22T04:40:09.722Z,997.66
2018-12-22T04:41:09.754Z,997.69
2018-12-22T04:42:09.721Z,997.57
2018-12-22T04:43:09.754Z,997.64
2018-12-22T04:44:09.738Z,997.62
2018-12-22T04:45:09.773Z,997.52
2018-12-22T04:46:09.740Z,997.62
2018-12-22T04:47:09.766Z,997.66
2018-12-22T04:48:09.771Z,997.72
2018-12-22T04:49:09.799Z,997.73
2018-12-22T04:50:09.810Z,997.67
2018-12-22T04:51:09.761Z,997.66
2018-12-22T04:52:09.783Z,997.69
2018-12-22T04:53:09.805Z,997.59
2018-12-22T04:54:10.046Z,997.66
2018-12-22T04:55:10.684Z,997.67
2018-12-22T04:56:10.020Z,997.65
2018-12-22T04:57:09.820Z,997.67
2018-12-22T04:58:09.922Z,997.65
2018-12-22T04:59:10.166Z,997.69
2018-12-22T05:00:09.820Z,997.62
2018-12-22T05:01:09.857Z,997.67
2018-12-22T05:02:09.839Z,997.50
2018-12-22T05:03:09.845Z,997.71
2018-12-22T05:04:09.830Z,997.63
2018-12-22T05:05:09.869Z,997.70
2018-12-22T05:06:09.878Z,997.70
2018-12-22T05:07:09.871Z,997.76
2018-12-22T05:08:09.865Z,997.72
2018-12-22T05:09:09.859Z,997.74
2018-12-22T05:10:09.976Z,997.77
2018-12-22T05:11:09.899Z,997.84
2018-12-22T05:12:09.906Z,997.74
2018-12-22T05:13:09.910Z,997.92
2018-12-22T05:14:09.922Z,997.88
2018-12-22T05:15:09.907Z,997.86
2018-12-22T05:16:09.964Z,997.94
2018-12-22T05:17:09.931Z,998.00
2018-12-22T05:18:09.929Z,997.91
2018-12-22T05:19:09.936Z,997.94
2018-12-22T05:20:09.980Z,997.96
2018-12-22T05:21:09.952Z,997.95
2018-12-22T05:22:10.023Z,997.98
2018-12-22T05:23:10.001Z,998.01
2018-12-22T05:24:09.964Z,997.91
2018-12-22T05:25:09.975Z,998.02
2018-12-22T05:26:10.013Z,997.92
2018-12-22T05:27:09.984Z,997.97
2018-12-22T05:28:09.977Z,997.95
2018-12-22T05:29:10.016Z,997.89
2018-12-22T05:30:09.990Z,998.03
2018-12-22T05:31:10.036Z,998.02
2018-12-22T05:32:10.055Z,998.03
2018-12-22T05:33:10.017Z,998.01
2018-12-22T05:34:10.056Z,998.08
2018-12-22T05:35:10.029Z,998.08
2018-12-22T05:36:10.021Z,998.09
2018-12-22T05:37:10.072Z,998.02
2018-12-22T05:38:10.073Z,998.05
2018-12-22T05:39:10.057Z,998.10
2018-12-22T05:40:10.049Z,998.07
2018-12-22T05:41:10.066Z,998.20
2018-12-22T05:42:10.053Z,998.03
2018-12-22T05:43:10.099Z,998.06
2018-12-22T05:44:10.103Z,998.05
2018-12-22T05:45:10.076Z,998.11
2018-12-22T05:46:10.090Z,998.08
2018-12-22T05:47:10.107Z,998.11
2018-12-22T05:48:10.078Z,998.09
2018-12-22T05:49:10.132Z,998.10
2018-12-22T05:50:10.124Z,998.06
2018-12-22T05:51:10.128Z,998.03
2018-12-22T05:52:10.131Z,998.09
2018-12-22T05:53:10.145Z,998.11
2018-12-22T05:54:10.187Z,998.12
2018-12-22T05:55:10.178Z,998.12
2018-12-22T05:56:10.232Z,998.15
2018-12-22T05:57:10.258Z,998.20
2018-12-22T05:58:10.158Z,998.20
2018-12-22T05:59:10.178Z,998.24
2018-12-22T06:00:10.207Z,998.14
2018-12-22T06:01:10.169Z,998.20
2018-12-22T06:02:10.221Z,998.19
2018-12-22T06:03:10.197Z,998.20
2018-12-22T06:04:10.276Z,998.19
2018-12-22T06:05:10.300Z,998.16
2018-12-22T06:06:10.239Z,998.25
2018-12-22T06:07:10.229Z,998.16
2018-12-22T06:08:10.228Z,998.26
2018-12-22T06:09:10.227Z,998.24
2018-12-22T06:10:10.264Z,998.22
2018-12-22T06:11:10.252Z,998.22
2018-12-22T06:12:10.240Z,998.21
2018-12-22T06:13:10.264Z,998.18
2018-12-22T06:14:10.286Z,998.18
2018-12-22T06:15:10.283Z,998.21
2018-12-22T06:16:10.322Z,998.22
2018-12-22T06:17:10.292Z,998.22
2018-12-22T06:18:10.310Z,998.26
2018-12-22T06:19:10.279Z,998.23
2018-12-22T06:20:10.290Z,998.23
2018-12-22T06:21:10.367Z,998.29
2018-12-22T06:22:10.317Z,998.23
2018-12-22T06:23:10.329Z,998.25
2018-12-22T06:24:10.301Z,998.24
2018-12-22T06:25:10.334Z,998.14
2018-12-22T06:26:10.336Z,998.23
2018-12-22T06:27:10.820Z,998.29
2018-12-22T06:28:10.363Z,998.31
2018-12-22T06:29:10.523Z,998.23
2018-12-22T06:30:10.345Z,998.24
2018-12-22T06:31:10.558Z,998.30
2018-12-22T06:32:10.394Z,998.27
2018-12-22T06:33:10.477Z,998.29
2018-12-22T06:34:10.355Z,998.25
2018-12-22T06:35:10.521Z,998.27
2018-12-22T06:36:10.371Z,998.35
2018-12-22T06:37:10.372Z,998.33
2018-12-22T06:38:10.413Z,998.39
2018-12-22T06:39:10.397Z,998.37
2018-12-22T06:40:10.370Z,998.32
2018-12-22T06:41:10.420Z,998.39
2018-12-22T06:42:10.466Z,998.39
2018-12-22T06:43:10.606Z,998.34
2018-12-22T06:44:10.496Z,998.39
2018-12-22T06:45:10.468Z,998.43
2018-12-22T06:46:10.422Z,998.41
2018-12-22T06:47:10.432Z,998.42
2018-12-22T06:48:10.603Z,998.49
2018-12-22T06:49:11.052Z,998.44
2018-12-22T06:50:10.472Z,998.50
2018-12-22T06:51:10.448Z,998.43
2018-12-22T06:52:10.542Z,998.52
2018-12-22T06:53:10.471Z,998.47
2018-12-22T06:54:10.570Z,998.52
2018-12-22T06:55:10.481Z,998.50
2018-12-22T06:56:10.581Z,998.56
2018-12-22T06:57:10.486Z,998.53
2018-12-22T06:58:10.508Z,998.58
2018-12-22T06:59:10.524Z,998.58
2018-12-22T07:00:17.546Z,998.54
2018-12-22T07:01:10.512Z,998.64
2018-12-22T07:02:10.551Z,998.71
2018-12-22T07:03:10.562Z,998.64
2018-12-22T07:04:10.696Z,998.74
2018-12-22T07:05:10.585Z,998.80
2018-12-22T07:06:10.631Z,998.75
2018-12-22T07:07:10.550Z,998.73
2018-12-22T07:08:10.578Z,998.76
2018-12-22T07:09:10.558Z,998.78
2018-12-22T07:10:10.647Z,998.82
2018-12-22T07:11:10.618Z,998.82
2018-12-22T07:12:10.614Z,998.85
2018-12-22T07:13:10.598Z,998.85
2018-12-22T07:14:10.681Z,998.91
2018-12-22T07:15:10.617Z,998.94
2018-12-22T07:16:10.644Z,998.93
2018-12-22T07:17:10.713Z,998.90
2018-12-22T07:18:10.624Z,998.98
2018-12-22T07:19:10.636Z,998.96
2018-12-22T07:20:10.686Z,998.87
2018-12-22T07:21:10.725Z,998.91
2018-12-22T07:22:11.405Z,998.98
2018-12-22T07:23:10.654Z,998.93
2018-12-22T07:24:10.698Z,998.96
2018-12-22T07:25:10.659Z,998.98
2018-12-22T07:26:10.707Z,999.00
2018-12-22T07:27:10.739Z,999.04
2018-12-22T07:28:10.711Z,999.07
2018-12-22T07:29:10.703Z,999.06
2018-12-22T07:30:11.406Z,999.06
2018-12-22T07:31:10.697Z,999.04
2018-12-22T07:32:10.719Z,998.97
2018-12-22T07:33:10.785Z,999.06
2018-12-22T07:34:10.778Z,999.06
2018-12-22T07:35:10.754Z,999.04
2018-12-22T07:36:10.801Z,999.05
2018-12-22T07:37:10.718Z,999.09
2018-12-22T07:38:10.735Z,999.09
2018-12-22T07:39:10.805Z,999.10
2018-12-22T07:40:10.758Z,999.04
2018-12-22T07:41:10.737Z,999.10
2018-12-22T07:42:10.779Z,999.01
2018-12-22T07:43:10.740Z,999.07
2018-12-22T07:44:10.785Z,999.08
2018-12-22T07:45:10.791Z,999.07
2018-12-22T07:46:10.755Z,999.12
2018-12-22T07:47:10.909Z,999.06
2018-12-22T07:48:10.875Z,999.11
2018-12-22T07:49:10.896Z,999.10
2018-12-22T07:50:10.837Z,999.13
2018-12-22T07:51:10.819Z,999.19
2018-12-22T07:52:10.815Z,999.23
2018-12-22T07:53:10.880Z,999.17
2018-12-22T07:54:10.842Z,999.23
2018-12-22T07:55:10.894Z,999.18
2018-12-22T07:56:10.871Z,999.21
2018-12-22T07:57:10.945Z,999.24
2018-12-22T07:58:10.856Z,999.26
2018-12-22T07:59:10.867Z,999.24
2018-12-22T08:00:10.866Z,999.32
2018-12-22T08:01:11.073Z,999.29
2018-12-22T08:02:10.925Z,999.30
2018-12-22T08:03:10.893Z,999.30
2018-12-22T08:04:10.895Z,999.26
2018-12-22T08:05:10.902Z,999.33
2018-12-22T08:06:10.907Z,999.32
2018-12-22T08:07:10.977Z,999.33
2018-12-22T08:08:11.037Z,999.26
2018-12-22T08:09:10.952Z,999.35
2018-12-22T08:10:10.914Z,999.38
2018-12-22T08:11:10.917Z,999.35
2018-12-22T08:12:10.924Z,999.38
2018-12-22T08:13:11.161Z,999.43
2018-12-22T08:14:10.976Z,999.46
2018-12-22T08:15:10.977Z,999.48
2018-12-22T08:16:10.953Z,999.48
2018-12-22T08:17:11.107Z,999.43
2018-12-22T08:18:11.080Z,999.52
2018-12-22T08:19:10.960Z,999.47
2018-12-22T08:20:11.031Z,999.49
2018-12-22T08:21:11.028Z,999.53
2018-12-22T08:22:11.546Z,999.51
2018-12-22T08:23:11.124Z,999.46
2018-12-22T08:24:11.011Z,999.48
2018-12-22T08:25:11.093Z,999.48
2018-12-22T08:26:11.031Z,999.47
2018-12-22T08:27:11.027Z,999.58
2018-12-22T08:28:11.145Z,999.56
2018-12-22T08:29:11.084Z,999.59
2018-12-22T08:30:11.136Z,999.60
2018-12-22T08:31:11.085Z,999.67
2018-12-22T08:32:11.065Z,999.66
2018-12-22T08:33:11.037Z,999.68
2018-12-22T08:34:11.106Z,999.73
2018-12-22T08:35:11.079Z,999.67
2018-12-22T08:36:11.315Z,999.69
2018-12-22T08:37:11.206Z,999.73
2018-12-22T08:38:11.125Z,999.74
2018-12-22T08:39:11.109Z,999.77
2018-12-22T08:40:11.095Z,999.72
2018-12-22T08:41:11.094Z,999.79
2018-12-22T08:42:11.100Z,999.78
2018-12-22T08:43:11.130Z,999.86
2018-12-22T08:44:11.080Z,999.85
2018-12-22T08:45:11.139Z,999.90
2018-12-22T08:46:11.137Z,999.92
2018-12-22T08:47:11.116Z,1000.02
2018-12-22T08:48:11.109Z,999.96
2018-12-22T08:49:11.200Z,1000.06
2018-12-22T08:50:11.150Z,1000.11
2018-12-22T08:51:11.142Z,1000.08
2018-12-22T08:52:11.294Z,1000.12
2018-12-22T08:53:11.183Z,1000.13
2018-12-22T08:54:11.212Z,1000.14
2018-12-22T08:55:11.188Z,1000.14
2018-12-22T08:56:11.182Z,1000.22
2018-12-22T08:57:11.193Z,1000.21
2018-12-22T08:58:11.155Z,1000.20
2018-12-22T08:59:11.210Z,1000.19
2018-12-22T09:00:11.184Z,1000.20
2018-12-22T09:01:11.232Z,1000.21
2018-12-22T09:02:11.203Z,1000.24
2018-12-22T09:03:11.204Z,1000.28
2018-12-22T09:04:11.221Z,1000.26
2018-12-22T09:05:11.226Z,1000.22
2018-12-22T09:06:11.271Z,1000.28
2018-12-22T09:07:11.221Z,1000.26
2018-12-22T09:08:11.210Z,1000.28
2018-12-22T09:09:11.249Z,1000.26
2018-12-22T09:10:11.252Z,1000.36
2018-12-22T09:11:11.286Z,1000.31
2018-12-22T09:12:11.242Z,1000.41
2018-12-22T09:13:11.305Z,1000.35
2018-12-22T09:14:11.288Z,1000.36
2018-12-22T09:15:11.251Z,1000.33
2018-12-22T09:16:11.287Z,1000.35
2018-12-22T09:17:11.343Z,1000.26
2018-12-22T09:18:11.331Z,1000.40
2018-12-22T09:19:11.296Z,1000.41
2018-12-22T09:20:11.305Z,1000.35
2018-12-22T09:21:11.386Z,1000.36
2018-12-22T09:22:11.310Z,1000.37
2018-12-22T09:23:11.412Z,1000.38
2018-12-22T09:24:11.345Z,1000.41
2018-12-22T09:25:11.370Z,1000.45
2018-12-22T09:26:11.359Z,1000.42
2018-12-22T09:27:11.346Z,1000.44
2018-12-22T09:28:11.387Z,1000.44
2018-12-22T09:29:11.342Z,1000.42
2018-12-22T09:30:11.387Z,1000.39
2018-12-22T09:31:11.378Z,1000.43
2018-12-22T09:32:11.379Z,1000.47
2018-12-22T09:33:11.427Z,1000.44
2018-12-22T09:34:13.518Z,1000.48
2018-12-22T09:35:11.534Z,1000.45
2018-12-22T09:36:11.409Z,1000.49
2018-12-22T09:37:11.418Z,1000.53
2018-12-22T09:38:11.480Z,1000.50
2018-12-22T09:39:11.425Z,1000.44
2018-12-22T09:40:11.474Z,1000.51
2018-12-22T09:41:11.415Z,1000.50
2018-12-22T09:42:11.463Z,1000.50
2018-12-22T09:43:11.479Z,1000.55
2018-12-22T09:44:11.464Z,1000.51
2018-12-22T09:45:11.460Z,1000.51
2018-12-22T09:46:11.470Z,1000.46
2018-12-22T09:47:11.527Z,1000.52
2018-12-22T09:48:11.557Z,1000.52
2018-12-22T09:49:11.531Z,1000.59
2018-12-22T09:50:11.481Z,1000.64
2018-12-22T09:51:11.505Z,1000.56
2018-12-22T09:52:11.507Z,1000.68
2018-12-22T09:53:11.479Z,1000.73
2018-12-22T09:54:11.679Z,1000.73
2018-12-22T09:55:11.514Z,1000.83
2018-12-22T09:56:11.526Z,1000.73
2018-12-22T09:57:11.598Z,1000.78
2018-12-22T09:58:11.522Z,1000.79
2018-12-22T09:59:11.602Z,1000.75
2018-12-22T10:00:11.521Z,1000.89
2018-12-22T10:01:11.601Z,1000.78
2018-12-22T10:02:11.556Z,1000.70
2018-12-22T10:03:11.603Z,1000.84
2018-12-22T10:04:11.638Z,1000.88
2018-12-22T10:05:11.712Z,1000.95
2018-12-22T10:06:11.562Z,1000.97
2018-12-22T10:07:11.633Z,1001.02
2018-12-22T10:08:11.847Z,1000.93
2018-12-22T10:09:11.610Z,1001.02
2018-12-22T10:10:11.646Z,1001.22
2018-12-22T10:11:11.656Z,1000.97
2018-12-22T10:12:11.755Z,1000.96
2018-12-22T10:13:11.635Z,1001.03
2018-12-22T10:14:11.716Z,1001.07
2018-12-22T10:15:11.649Z,1001.07
2018-12-22T10:16:11.667Z,1001.08
2018-12-22T10:17:11.655Z,1001.14
2018-12-22T10:18:11.619Z,1001.22
2018-12-22T10:19:11.700Z,1001.18
2018-12-22T10:20:11.684Z,1001.24
2018-12-22T10:21:11.709Z,1001.24
2018-12-22T10:22:11.732Z,1001.19
2018-12-22T10:23:11.821Z,1001.22
2018-12-22T10:24:11.778Z,1001.17
2018-12-22T10:25:11.691Z,1001.20
2018-12-22T10:26:11.799Z,1001.27
2018-12-22T10:27:11.810Z,1001.21
2018-12-22T10:28:11.884Z,1001.26
2018-12-22T10:29:12.134Z,1001.24
2018-12-22T10:30:12.303Z,1001.35
2018-12-22T10:31:17.978Z,1001.27
2018-12-22T10:32:12.960Z,1001.34
2018-12-22T10:33:11.734Z,1001.36
2018-12-22T10:34:11.791Z,1001.34
2018-12-22T10:35:11.921Z,1001.53
2018-12-22T10:36:11.846Z,1001.48
2018-12-22T10:37:11.784Z,1001.58
2018-12-22T10:38:11.745Z,1001.50
2018-12-22T10:39:11.765Z,1001.56
2018-12-22T10:40:11.790Z,1001.58
2018-12-22T10:41:12.065Z,1001.55
2018-12-22T10:42:12.033Z,1001.53
2018-12-22T10:43:11.804Z,1001.62
2018-12-22T10:44:11.990Z,1001.64
2018-12-22T10:45:11.825Z,1001.59
2018-12-22T10:46:11.861Z,1001.69
2018-12-22T10:47:11.835Z,1001.79
2018-12-22T10:48:11.862Z,1001.73
2018-12-22T10:49:11.810Z,1001.82
2018-12-22T10:50:11.810Z,1001.90
2018-12-22T10:51:11.882Z,1001.82
2018-12-22T10:52:11.811Z,1001.86
2018-12-22T10:53:11.833Z,1001.82
2018-12-22T10:54:12.050Z,1001.85
2018-12-22T10:55:11.837Z,1001.90
2018-12-22T10:56:11.977Z,1001.95
2018-12-22T10:57:11.874Z,1001.89
2018-12-22T10:58:11.924Z,1001.95
2018-12-22T10:59:11.867Z,1001.95
2018-12-22T11:00:11.859Z,1001.94
2018-12-22T11:01:12.030Z,1001.91
2018-12-22T11:02:11.895Z,1001.93
2018-12-22T11:03:11.930Z,1001.93
2018-12-22T11:04:11.894Z,1001.93
2018-12-22T11:05:11.939Z,1002.02
2018-12-22T11:06:11.890Z,1002.12
2018-12-22T11:07:12.006Z,1002.10
2018-12-22T11:08:11.928Z,1002.05
2018-12-22T11:09:11.962Z,1002.11
2018-12-22T11:10:11.993Z,1002.11
2018-12-22T11:11:11.966Z,1002.10
2018-12-22T11:12:11.966Z,1002.13
2018-12-22T11:13:11.958Z,1002.17
2018-12-22T11:14:12.074Z,1002.15
2018-12-22T11:15:11.975Z,1002.21
2018-12-22T11:16:11.940Z,1002.31
2018-12-22T11:17:11.947Z,1002.22
2018-12-22T11:18:12.007Z,1002.27
2018-12-22T11:19:11.965Z,1002.20
2018-12-22T11:20:11.968Z,1002.24
2018-12-22T11:21:12.020Z,1002.23
2018-12-22T11:22:12.002Z,1002.29
2018-12-22T11:23:20.261Z,1002.29
2018-12-22T11:24:11.994Z,1002.29
2018-12-22T11:25:12.062Z,1002.35
2018-12-22T11:26:12.015Z,1002.36
2018-12-22T11:27:12.029Z,1002.39
2018-12-22T11:28:12.027Z,1002.36
2018-12-22T11:29:12.088Z,1002.40
2018-12-22T11:30:12.038Z,1002.39
2018-12-22T11:31:12.108Z,1002.40
2018-12-22T11:32:12.059Z,1002.41
2018-12-22T11:33:12.062Z,1002.44
2018-12-22T11:34:12.077Z,1002.48
2018-12-22T11:35:12.031Z,1002.56
2018-12-22T11:36:12.030Z,1002.48
2018-12-22T11:37:12.068Z,1002.46
2018-12-22T11:38:12.922Z,1002.55
2018-12-22T11:39:12.078Z,1002.55
2018-12-22T11:40:12.077Z,1002.54
2018-12-22T11:41:12.142Z,1002.57
2018-12-22T11:42:12.108Z,1002.61
2018-12-22T11:43:12.119Z,1002.62
2018-12-22T11:44:12.097Z,1002.66
2018-12-22T11:45:12.086Z,1002.67
2018-12-22T11:46:12.092Z,1002.70
2018-12-22T11:47:12.135Z,1002.67
2018-12-22T11:48:12.119Z,1002.73
2018-12-22T11:49:12.132Z,1002.76
2018-12-22T11:50:12.124Z,1002.76
2018-12-22T11:51:12.133Z,1002.80
2018-12-22T11:52:12.195Z,1002.83
2018-12-22T11:53:12.163Z,1002.83
2018-12-22T11:54:12.157Z,1002.84
2018-12-22T11:55:12.137Z,1002.81
2018-12-22T11:56:12.233Z,1002.85
2018-12-22T11:57:12.181Z,1002.82
2018-12-22T11:58:12.189Z,1002.83
2018-12-22T11:59:12.200Z,1002.88
2018-12-22T12:00:12.166Z,1002.94
2018-12-22T12:01:12.195Z,1002.93
2018-12-22T12:02:12.182Z,1002.96
2018-12-22T12:03:12.216Z,1002.94
2018-12-22T12:04:12.265Z,1003.16
2018-12-22T12:05:12.237Z,1003.03
2018-12-22T12:06:12.463Z,1003.08
2018-12-22T12:07:12.206Z,1003.08
2018-12-22T12:08:12.208Z,1003.14
2018-12-22T12:09:12.282Z,1003.21
2018-12-22T12:10:12.294Z,1003.24
2018-12-22T12:11:12.255Z,1003.33
2018-12-22T12:12:12.224Z,1003.37
2018-12-22T12:13:12.234Z,1003.36
2018-12-22T12:14:12.242Z,1003.39
2018-12-22T12:15:12.569Z,1003.44
2018-12-22T12:16:12.233Z,1003.42
2018-12-22T12:17:12.255Z,1003.42
2018-12-22T12:18:12.242Z,1003.50
2018-12-22T12:19:12.305Z,1003.54
2018-12-22T12:20:12.427Z,1003.55
2018-12-22T12:21:12.297Z,1003.57